Terminal Aerodrome Forecast
Issued by NWS

Home | Current Version | Previous Version | Text Only | Print | Product List | Glossary On
Versions: 1 2 3 4 5 6 7 8 9 10 11 12 13 14 15 16
000
FTUS42 KMLB 251305 AAA
TAFLEE
TAF AMD
KLEE 251305Z 2513/2612 28004KT 1/2SM FG VV002
      TEMPO 2513/2514 2SM BR OVC004
     FM251400 23004KT 6SM BR OVC005
     FM251500 27008KT P6SM FEW015 SCT040
     FM260000 29007KT P6SM SCT035
     FM260600 36009KT P6SM SKC=

USA.gov is the U.S. government's official web portal to all federal, state and local government web resources and services.